createdAt,value
2023-01-18T00:01:19.455Z,6.88
2023-01-18T00:03:46.368Z,7.35
2023-01-18T00:06:13.178Z,7.88
2023-01-18T00:08:40.944Z,7.15
2023-01-18T00:11:10.655Z,6.20
2023-01-18T00:13:37.691Z,4.07
2023-01-18T00:16:07.132Z,5.82
2023-01-18T00:18:36.079Z,4.03
2023-01-18T00:21:08.121Z,6.45
2023-01-18T00:23:35.337Z,5.72
2023-01-18T00:26:08.112Z,5.38
2023-01-18T00:28:35.802Z,4.35
2023-01-18T00:31:08.475Z,6.13
2023-01-18T00:33:35.107Z,8.32
2023-01-18T00:36:03.324Z,5.40
2023-01-18T00:38:30.476Z,4.60
2023-01-18T00:40:57.550Z,4.47
2023-01-18T00:43:39.473Z,3.75
2023-01-18T00:46:07.210Z,7.40
2023-01-18T00:48:34.300Z,4.50
2023-01-18T00:51:01.515Z,7.18
2023-01-18T00:53:29.265Z,3.28
2023-01-18T00:55:56.175Z,3.08
2023-01-18T00:58:22.869Z,3.30
2023-01-18T01:00:52.786Z,3.85
2023-01-18T01:03:20.919Z,3.00
2023-01-18T01:06:06.164Z,3.80
2023-01-18T01:08:33.086Z,2.95
2023-01-18T01:11:07.821Z,9.48
2023-01-18T01:13:53.501Z,4.93
2023-01-18T01:16:39.448Z,3.40
2023-01-18T01:19:25.071Z,7.97
2023-01-18T01:22:10.498Z,5.00
2023-01-18T01:24:56.051Z,3.65
2023-01-18T01:27:23.178Z,5.03
2023-01-18T01:29:51.592Z,3.42
2023-01-18T01:32:18.410Z,3.95
2023-01-18T01:34:45.071Z,4.43
2023-01-18T01:37:11.828Z,5.82
2023-01-18T01:39:38.463Z,5.35
2023-01-18T01:42:05.157Z,3.38
2023-01-18T01:44:34.526Z,4.97
2023-01-18T01:47:21.477Z,4.50
2023-01-18T01:49:52.594Z,5.10
2023-01-18T01:52:33.906Z,5.00
2023-01-18T01:55:04.593Z,4.15
2023-01-18T01:57:50.939Z,4.60
2023-01-18T02:00:20.397Z,5.18
2023-01-18T02:02:54.685Z,3.03
2023-01-18T02:05:21.796Z,3.33
2023-01-18T02:07:49.097Z,4.03
2023-01-18T02:10:16.280Z,4.72
2023-01-18T02:12:46.110Z,7.65
2023-01-18T02:15:13.217Z,4.07
2023-01-18T02:17:53.980Z,7.63
2023-01-18T02:20:31.898Z,4.05
2023-01-18T02:23:21.581Z,6.00
2023-01-18T02:26:16.322Z,4.07
2023-01-18T02:31:21.306Z,7.00
2023-01-18T02:33:50.965Z,9.10
2023-01-18T02:36:34.602Z,5.40
2023-01-18T02:39:06.936Z,5.40
2023-01-18T02:42:00.860Z,6.15
2023-01-18T02:44:52.752Z,3.38
2023-01-18T02:47:21.177Z,4.45
2023-01-18T02:49:47.795Z,4.30
2023-01-18T02:52:39.292Z,4.72
2023-01-18T02:55:09.502Z,4.50
2023-01-18T02:57:36.290Z,5.88
2023-01-18T03:00:06.214Z,5.00
2023-01-18T03:02:33.055Z,3.67
2023-01-18T03:05:00.190Z,3.85
2023-01-18T03:07:31.934Z,3.97
2023-01-18T03:10:01.688Z,4.05
2023-01-18T03:12:56.587Z,4.55
2023-01-18T03:15:45.735Z,3.47
2023-01-18T03:18:23.295Z,7.25
2023-01-18T03:20:55.832Z,4.70
2023-01-18T03:23:41.158Z,5.15
2023-01-18T03:26:16.458Z,4.63
2023-01-18T03:29:13.197Z,3.20
2023-01-18T03:32:05.357Z,4.38
2023-01-18T03:34:59.370Z,2.80
2023-01-18T03:37:37.677Z,3.80
2023-01-18T03:40:12.023Z,5.43
2023-01-18T03:42:50.045Z,4.18
2023-01-18T03:45:23.469Z,4.35
2023-01-18T03:47:50.924Z,3.75
2023-01-18T03:50:17.991Z,3.40
2023-01-18T03:52:50.609Z,5.75
2023-01-18T03:55:24.188Z,3.92
2023-01-18T03:57:59.667Z,5.88
2023-01-18T04:00:26.597Z,5.40
2023-01-18T04:02:53.502Z,4.90
2023-01-18T04:05:20.368Z,4.85
2023-01-18T04:07:47.317Z,6.63
2023-01-18T04:10:14.112Z,5.78
2023-01-18T04:12:40.877Z,6.65
2023-01-18T04:15:08.204Z,4.65
2023-01-18T04:17:34.923Z,4.60
2023-01-18T04:20:01.806Z,5.68
2023-01-18T04:22:28.563Z,4.90
2023-01-18T04:24:55.374Z,6.00
2023-01-18T04:27:24.282Z,8.20
2023-01-18T04:29:51.495Z,6.20
2023-01-18T04:32:18.250Z,6.07
2023-01-18T04:34:45.017Z,3.88
2023-01-18T04:37:11.707Z,4.95
2023-01-18T04:39:38.694Z,6.20
2023-01-18T04:42:05.691Z,7.20
2023-01-18T04:44:32.394Z,6.95
2023-01-18T04:46:59.106Z,4.60
2023-01-18T04:49:27.802Z,6.63
2023-01-18T04:51:54.489Z,5.20
2023-01-18T04:54:21.135Z,6.05
2023-01-18T04:56:47.900Z,10.75
2023-01-18T04:59:16.371Z,4.57
2023-01-18T05:01:43.248Z,5.63
2023-01-18T05:04:10.330Z,5.65
2023-01-18T05:06:37.006Z,6.18
2023-01-18T05:09:03.932Z,9.88
2023-01-18T05:11:30.677Z,6.63
2023-01-18T05:13:57.333Z,4.88
2023-01-18T05:16:24.472Z,6.60
2023-01-18T05:18:51.625Z,7.90
2023-01-18T05:21:18.326Z,5.78
2023-01-18T05:23:45.146Z,9.00
2023-01-18T05:26:17.904Z,6.50
2023-01-18T05:28:45.410Z,5.00
2023-01-18T05:31:13.419Z,6.53
2023-01-18T05:33:40.241Z,7.97
2023-01-18T05:36:07.726Z,10.23
2023-01-18T05:38:34.530Z,9.77
2023-01-18T05:41:01.434Z,7.00
2023-01-18T05:43:28.938Z,8.40
2023-01-18T05:45:56.015Z,7.70
2023-01-18T05:48:23.019Z,6.97
2023-01-18T05:50:49.967Z,13.25
2023-01-18T05:53:19.711Z,10.07
2023-01-18T05:55:58.244Z,12.60
2023-01-18T05:58:26.330Z,12.77
2023-01-18T06:00:53.787Z,13.85
2023-01-18T06:03:21.092Z,16.35
2023-01-18T06:05:48.559Z,14.75
2023-01-18T06:08:15.991Z,20.40
2023-01-18T06:10:42.733Z,14.50
2023-01-18T06:13:10.306Z,13.70
2023-01-18T06:15:37.163Z,17.95
2023-01-18T06:18:04.040Z,16.38
2023-01-18T06:20:30.771Z,17.02
2023-01-18T06:22:58.325Z,17.80
2023-01-18T06:25:25.666Z,16.00
2023-01-18T06:27:52.688Z,13.48
2023-01-18T06:30:19.740Z,13.98
2023-01-18T06:32:48.396Z,15.57
2023-01-18T06:35:15.175Z,13.52
2023-01-18T06:37:42.006Z,17.75
2023-01-18T06:40:09.697Z,15.98
2023-01-18T06:42:36.385Z,16.15
2023-01-18T06:45:03.405Z,14.40
2023-01-18T06:47:30.209Z,14.68
2023-01-18T06:49:57.015Z,16.20
2023-01-18T06:52:23.783Z,14.48
2023-01-18T06:54:50.432Z,14.60
2023-01-18T06:57:17.131Z,16.77
2023-01-18T06:59:43.899Z,14.93
2023-01-18T07:02:16.422Z,13.70
2023-01-18T07:04:45.321Z,15.05
2023-01-18T07:07:13.251Z,13.95
2023-01-18T07:09:39.919Z,13.90
2023-01-18T07:12:06.988Z,14.80
2023-01-18T07:14:34.210Z,17.40
2023-01-18T07:17:00.913Z,14.93
2023-01-18T07:19:27.699Z,18.92
2023-01-18T07:21:54.445Z,17.73
2023-01-18T07:24:21.189Z,17.52
2023-01-18T07:26:48.122Z,18.90
2023-01-18T07:29:14.933Z,17.33
2023-01-18T07:31:41.660Z,16.08
2023-01-18T07:34:09.825Z,20.98
2023-01-18T07:36:39.101Z,18.77
2023-01-18T07:39:06.518Z,21.23
2023-01-18T07:41:33.220Z,25.83
2023-01-18T07:44:00.581Z,47.10
2023-01-18T07:46:27.658Z,35.35
2023-01-18T07:48:54.394Z,15.70
2023-01-18T07:51:22.507Z,18.58
2023-01-18T07:53:53.625Z,22.00
2023-01-18T07:56:20.621Z,14.10
2023-01-18T07:58:47.260Z,20.48
2023-01-18T08:01:17.124Z,16.95
2023-01-18T08:03:45.635Z,18.02
2023-01-18T08:06:17.034Z,21.17
2023-01-18T08:08:44.197Z,16.92
2023-01-18T08:11:11.927Z,20.05
2023-01-18T08:13:39.141Z,20.52
2023-01-18T08:16:08.329Z,18.92
2023-01-18T08:18:35.091Z,19.63
2023-01-18T08:21:01.837Z,17.83
2023-01-18T08:23:28.845Z,17.95
2023-01-18T08:25:55.550Z,15.27
2023-01-18T08:28:22.624Z,14.95
2023-01-18T08:30:49.500Z,20.75
2023-01-18T08:33:16.403Z,15.07
2023-01-18T08:35:47.769Z,18.13
2023-01-18T08:38:16.079Z,17.30
2023-01-18T08:40:43.331Z,17.02
2023-01-18T08:43:11.658Z,12.60
2023-01-18T08:45:38.498Z,15.50
2023-01-18T08:48:09.355Z,17.13
2023-01-18T08:50:36.785Z,15.80
2023-01-18T08:53:04.186Z,14.85
2023-01-18T08:55:31.763Z,13.80
2023-01-18T08:57:59.103Z,14.73
2023-01-18T09:00:30.084Z,16.80
2023-01-18T09:02:58.335Z,18.45
2023-01-18T09:05:27.036Z,15.07
2023-01-18T09:07:54.949Z,23.88
2023-01-18T09:10:22.299Z,12.77
2023-01-18T09:12:49.016Z,13.48
2023-01-18T09:15:15.789Z,15.68
2023-01-18T09:17:42.518Z,16.52
2023-01-18T09:20:11.851Z,12.90
2023-01-18T09:22:39.729Z,14.38
2023-01-18T09:25:06.935Z,13.60
2023-01-18T09:27:33.765Z,24.55
2023-01-18T09:30:00.698Z,12.90
2023-01-18T09:32:27.513Z,19.98
2023-01-18T09:34:54.804Z,26.60
2023-01-18T09:37:21.914Z,16.73
2023-01-18T09:39:52.089Z,17.48
2023-01-18T09:42:22.647Z,27.80
2023-01-18T09:44:56.601Z,25.35
2023-01-18T09:47:39.413Z,10.32
2023-01-18T09:50:20.853Z,10.88
2023-01-18T09:53:34.134Z,14.60
2023-01-18T09:56:05.744Z,11.48
2023-01-18T09:58:53.514Z,11.07
2023-01-18T10:01:25.206Z,7.78
2023-01-18T10:04:10.703Z,10.10
2023-01-18T10:07:00.512Z,9.43
2023-01-18T10:09:28.537Z,10.63
2023-01-18T10:11:59.832Z,13.68
2023-01-18T10:14:41.847Z,14.05
2023-01-18T10:17:17.695Z,15.07
2023-01-18T10:19:44.765Z,15.05
2023-01-18T10:22:19.425Z,15.52
2023-01-18T10:24:55.323Z,16.10
2023-01-18T10:27:38.210Z,19.50
2023-01-18T10:30:29.032Z,17.95
2023-01-18T10:33:01.300Z,15.50
2023-01-18T10:35:33.110Z,17.92
2023-01-18T10:38:04.893Z,15.75
2023-01-18T10:40:32.621Z,18.08
2023-01-18T10:43:02.433Z,14.80
2023-01-18T10:45:32.900Z,14.23
2023-01-18T10:48:29.289Z,16.70
2023-01-18T10:50:59.496Z,14.50
2023-01-18T10:53:31.346Z,17.75
2023-01-18T10:56:17.311Z,16.40
2023-01-18T10:59:03.100Z,15.48
2023-01-18T11:01:31.793Z,16.63
2023-01-18T11:04:07.595Z,17.55
2023-01-18T11:06:55.575Z,18.17
2023-01-18T11:09:42.743Z,19.77
2023-01-18T11:12:43.373Z,14.82
2023-01-18T11:15:16.144Z,11.98
2023-01-18T11:17:56.330Z,9.30
2023-01-18T11:20:23.324Z,11.98
2023-01-18T11:22:59.299Z,12.68
2023-01-18T11:25:34.765Z,11.65
2023-01-18T11:28:03.006Z,12.18
2023-01-18T11:30:29.947Z,8.73
2023-01-18T11:33:02.400Z,7.53
2023-01-18T11:35:37.158Z,8.82
2023-01-18T11:38:08.684Z,13.52
2023-01-18T11:40:35.770Z,13.35
2023-01-18T11:43:11.463Z,9.00
2023-01-18T11:45:49.322Z,12.52
2023-01-18T11:48:43.761Z,11.00
2023-01-18T11:51:15.711Z,13.77
2023-01-18T11:53:57.699Z,11.35
2023-01-18T11:56:30.061Z,31.17
2023-01-18T11:58:57.246Z,19.85
2023-01-18T12:01:38.574Z,14.05
2023-01-18T12:04:14.089Z,9.85
2023-01-18T12:07:18.027Z,11.48
2023-01-18T12:09:54.137Z,14.20
2023-01-18T12:12:46.422Z,10.50
2023-01-18T12:15:39.634Z,8.43
2023-01-18T12:18:24.898Z,8.75
2023-01-18T12:20:58.255Z,15.23
2023-01-18T12:24:03.399Z,12.77
2023-01-18T12:29:11.135Z,11.13
2023-01-18T12:31:50.085Z,16.83
2023-01-18T12:34:32.906Z,11.15
2023-01-18T12:37:24.518Z,16.35
2023-01-18T12:39:57.201Z,17.10
2023-01-18T12:42:31.666Z,30.38
2023-01-18T12:45:04.300Z,34.83
2023-01-18T12:47:40.600Z,41.00
2023-01-18T12:50:29.513Z,40.00
2023-01-18T12:53:04.709Z,35.20
2023-01-18T12:55:33.659Z,16.27
2023-01-18T12:58:02.774Z,17.60
2023-01-18T13:00:36.364Z,21.70
2023-01-18T13:03:13.476Z,14.52
2023-01-18T13:05:53.342Z,9.75
2023-01-18T13:08:40.065Z,9.30
2023-01-18T13:11:09.172Z,10.48
2023-01-18T13:13:37.171Z,8.35
2023-01-18T13:16:16.326Z,10.05
2023-01-18T13:19:06.028Z,14.40
2023-01-18T13:22:00.143Z,11.02
2023-01-18T13:24:57.697Z,9.52
2023-01-18T13:27:24.462Z,18.08
2023-01-18T13:29:51.218Z,28.27
2023-01-18T13:32:34.198Z,12.32
2023-01-18T13:35:20.511Z,11.40
2023-01-18T13:37:57.942Z,11.73
2023-01-18T13:40:34.639Z,18.30
2023-01-18T13:43:01.635Z,16.52
2023-01-18T13:45:30.349Z,18.05
2023-01-18T13:48:41.874Z,15.50
2023-01-18T13:51:09.359Z,24.83
2023-01-18T13:53:50.106Z,16.90
2023-01-18T13:56:25.631Z,17.13
2023-01-18T13:59:12.248Z,19.92
2023-01-18T14:01:43.107Z,21.70
2023-01-18T14:04:32.140Z,17.38
2023-01-18T14:07:04.674Z,20.92
2023-01-18T14:09:41.593Z,18.90
2023-01-18T14:12:09.631Z,21.05
2023-01-18T14:14:59.401Z,21.48
2023-01-18T14:17:26.589Z,22.73
2023-01-18T14:20:08.201Z,21.33
2023-01-18T14:22:58.442Z,19.33
2023-01-18T14:25:46.009Z,28.50
2023-01-18T14:28:17.505Z,25.70
2023-01-18T14:30:46.686Z,20.58
2023-01-18T14:33:32.401Z,27.13
2023-01-18T14:36:00.845Z,33.58
2023-01-18T14:38:28.717Z,34.10
2023-01-18T14:40:59.386Z,17.10
2023-01-18T14:43:46.844Z,19.15
2023-01-18T14:46:16.916Z,27.13
2023-01-18T14:48:51.987Z,20.73
2023-01-18T14:51:24.480Z,15.38
2023-01-18T14:53:57.828Z,17.90
2023-01-18T14:56:26.265Z,21.20
2023-01-18T14:59:02.998Z,20.77
2023-01-18T15:01:40.184Z,23.08
2023-01-18T15:04:20.078Z,18.55
2023-01-18T15:06:57.306Z,19.10
2023-01-18T15:09:28.297Z,24.58
2023-01-18T15:12:01.112Z,21.02
2023-01-18T15:14:44.845Z,26.23
2023-01-18T15:17:23.294Z,20.67
2023-01-18T15:19:54.296Z,19.33
2023-01-18T15:22:26.761Z,18.23
2023-01-18T15:24:57.684Z,22.67
2023-01-18T15:27:24.528Z,20.60
2023-01-18T15:29:56.028Z,18.10
2023-01-18T15:32:26.258Z,20.52
2023-01-18T15:34:55.179Z,19.17
2023-01-18T15:37:24.159Z,20.45
2023-01-18T15:39:58.235Z,24.23
2023-01-18T15:44:59.139Z,18.52
2023-01-18T15:47:29.185Z,19.27
2023-01-18T15:49:57.882Z,17.35
2023-01-18T15:52:45.036Z,20.33
2023-01-18T15:55:30.339Z,25.88
2023-01-18T15:58:03.596Z,35.90
2023-01-18T16:00:38.299Z,30.38
2023-01-18T16:03:05.919Z,22.27
2023-01-18T16:05:32.817Z,21.88
2023-01-18T16:08:21.223Z,20.65
2023-01-18T16:10:56.052Z,23.80
2023-01-18T16:13:29.479Z,19.42
2023-01-18T16:16:15.294Z,17.80
2023-01-18T16:18:45.072Z,17.25
2023-01-18T16:21:19.693Z,17.58
2023-01-18T16:23:49.864Z,15.60
2023-01-18T16:26:23.085Z,18.70
2023-01-18T16:28:51.749Z,28.25
2023-01-18T16:31:22.996Z,40.88
2023-01-18T16:33:49.740Z,46.08
2023-01-18T16:36:19.035Z,22.10
2023-01-18T16:38:46.079Z,17.58
2023-01-18T16:41:14.732Z,18.85
2023-01-18T16:43:43.325Z,20.50
2023-01-18T16:46:10.001Z,34.70
2023-01-18T16:48:37.647Z,37.40
2023-01-18T16:51:13.695Z,38.63
2023-01-18T16:53:40.351Z,20.38
2023-01-18T16:56:07.290Z,25.08
2023-01-18T16:58:35.257Z,29.20
2023-01-18T17:01:07.734Z,25.42
2023-01-18T17:03:35.919Z,26.85
2023-01-18T17:06:03.534Z,28.08
2023-01-18T17:08:30.286Z,27.02
2023-01-18T17:10:56.984Z,18.60
2023-01-18T17:13:23.943Z,19.38
2023-01-18T17:15:52.621Z,21.80
2023-01-18T17:18:23.940Z,19.95
2023-01-18T17:20:50.938Z,20.35
2023-01-18T17:23:19.448Z,20.95
2023-01-18T17:25:46.420Z,23.40
2023-01-18T17:28:14.459Z,23.08
2023-01-18T17:30:43.647Z,20.77
2023-01-18T17:33:19.393Z,20.13
2023-01-18T17:35:46.443Z,18.45
2023-01-18T17:38:23.208Z,16.02
2023-01-18T17:40:51.241Z,19.98
2023-01-18T17:43:28.463Z,28.42
2023-01-18T17:46:02.450Z,21.85
2023-01-18T17:48:29.627Z,19.25
2023-01-18T17:50:56.361Z,18.75
2023-01-18T17:53:23.112Z,18.98
2023-01-18T17:55:49.913Z,19.98
2023-01-18T17:58:16.620Z,19.67
2023-01-18T18:00:43.814Z,21.48
2023-01-18T18:03:10.699Z,22.92
2023-01-18T18:05:37.476Z,16.77
2023-01-18T18:08:04.354Z,23.15
2023-01-18T18:10:31.059Z,19.38
2023-01-18T18:12:58.209Z,21.30
2023-01-18T18:15:25.433Z,29.92
2023-01-18T18:17:52.177Z,27.20
2023-01-18T18:20:20.237Z,21.15
2023-01-18T18:22:47.990Z,19.48
2023-01-18T18:25:14.732Z,21.13
2023-01-18T18:27:45.868Z,21.67
2023-01-18T18:30:13.652Z,20.35
2023-01-18T18:32:40.388Z,27.13
2023-01-18T18:35:23.264Z,23.30
2023-01-18T18:37:52.122Z,25.17
2023-01-18T18:40:19.185Z,20.20
2023-01-18T18:43:00.699Z,23.20
2023-01-18T18:45:29.479Z,21.50
2023-01-18T18:47:56.146Z,18.08
2023-01-18T18:50:22.793Z,26.95
2023-01-18T18:52:49.496Z,24.00
2023-01-18T18:55:16.239Z,25.60
2023-01-18T18:57:43.090Z,21.85
2023-01-18T19:00:10.450Z,26.23
2023-01-18T19:02:37.267Z,27.80
2023-01-18T19:05:05.062Z,24.98
2023-01-18T19:07:33.686Z,29.88
2023-01-18T19:10:00.395Z,22.23
2023-01-18T19:12:27.074Z,25.10
2023-01-18T19:14:53.732Z,24.20
2023-01-18T19:17:29.829Z,27.98
2023-01-18T19:19:57.830Z,27.80
2023-01-18T19:22:24.508Z,22.83
2023-01-18T19:24:51.158Z,28.42
2023-01-18T19:27:17.837Z,24.10
2023-01-18T19:29:44.574Z,22.30
2023-01-18T19:32:11.244Z,28.77
2023-01-18T19:34:38.580Z,28.77
2023-01-18T19:37:05.568Z,29.83
2023-01-18T19:39:34.742Z,29.13
2023-01-18T19:42:02.431Z,26.70
2023-01-18T19:44:29.529Z,31.48
2023-01-18T19:46:57.142Z,27.73
2023-01-18T19:49:27.367Z,35.03
2023-01-18T19:51:54.851Z,26.27
2023-01-18T19:54:22.139Z,27.98
2023-01-18T19:56:48.948Z,26.20
2023-01-18T19:59:16.039Z,20.92
2023-01-18T20:01:43.220Z,25.45
2023-01-18T20:04:10.023Z,26.48
2023-01-18T20:06:40.089Z,23.92
2023-01-18T20:09:18.606Z,28.77
2023-01-18T20:11:46.404Z,24.70
2023-01-18T20:14:13.418Z,28.25
2023-01-18T20:16:40.450Z,40.67
2023-01-18T20:19:07.427Z,26.70
2023-01-18T20:21:34.169Z,28.58
2023-01-18T20:24:00.943Z,32.85
2023-01-18T20:26:36.779Z,28.25
2023-01-18T20:29:07.332Z,30.60
2023-01-18T20:31:38.483Z,32.58
2023-01-18T20:34:06.356Z,25.88
2023-01-18T20:36:36.621Z,33.25
2023-01-18T20:39:05.062Z,22.90
2023-01-18T20:41:31.733Z,21.17
2023-01-18T20:43:58.486Z,27.40
2023-01-18T20:46:25.229Z,21.83
2023-01-18T20:48:51.918Z,20.67
2023-01-18T20:51:18.604Z,20.83
2023-01-18T20:53:45.322Z,21.02
2023-01-18T20:56:27.725Z,30.70
2023-01-18T20:58:55.716Z,27.77
2023-01-18T21:01:22.882Z,37.22
2023-01-18T21:03:54.660Z,36.60
2023-01-18T21:06:21.598Z,28.10
2023-01-18T21:08:50.976Z,32.35
2023-01-18T21:11:17.858Z,27.88
2023-01-18T21:13:44.531Z,38.58
2023-01-18T21:16:11.359Z,39.38
2023-01-18T21:18:39.348Z,32.17
2023-01-18T21:21:06.279Z,32.42
2023-01-18T21:23:39.194Z,30.95
2023-01-18T21:26:11.302Z,29.83
2023-01-18T21:28:38.354Z,31.77
2023-01-18T21:31:06.459Z,31.42
2023-01-18T21:33:33.738Z,30.77
2023-01-18T21:36:09.657Z,30.15
2023-01-18T21:38:36.587Z,31.63
2023-01-18T21:41:21.881Z,36.80
2023-01-18T21:44:09.221Z,26.08
2023-01-18T21:46:37.598Z,23.45
2023-01-18T21:49:06.610Z,21.40
2023-01-18T21:51:52.320Z,28.50
2023-01-18T21:54:19.653Z,24.30
2023-01-18T21:56:47.310Z,22.13
2023-01-18T21:59:14.678Z,28.70
2023-01-18T22:01:44.046Z,29.92
2023-01-18T22:04:33.794Z,26.85
2023-01-18T22:07:00.885Z,23.80
2023-01-18T22:09:29.275Z,26.05
2023-01-18T22:11:57.255Z,27.80
2023-01-18T22:14:25.043Z,23.60
2023-01-18T22:16:51.949Z,32.83
2023-01-18T22:19:21.359Z,29.02
2023-01-18T22:21:49.036Z,25.20
2023-01-18T22:24:17.400Z,17.48
2023-01-18T22:26:45.429Z,24.15
2023-01-18T22:29:12.986Z,20.85
2023-01-18T22:31:40.335Z,26.42
2023-01-18T22:34:07.595Z,22.33
2023-01-18T22:36:34.748Z,23.65
2023-01-18T22:39:01.577Z,18.70
2023-01-18T22:41:29.305Z,20.13
2023-01-18T22:43:56.090Z,29.42
2023-01-18T22:46:23.869Z,21.85
2023-01-18T22:48:51.261Z,26.90
2023-01-18T22:51:21.389Z,20.00
2023-01-18T22:53:49.402Z,20.33
2023-01-18T22:56:21.542Z,23.35
2023-01-18T22:58:48.470Z,18.33
2023-01-18T23:01:18.758Z,18.90
2023-01-18T23:03:46.061Z,16.15
2023-01-18T23:06:13.309Z,23.67
2023-01-18T23:08:43.660Z,19.48
2023-01-18T23:11:12.381Z,23.40
2023-01-18T23:13:42.029Z,17.50
2023-01-18T23:16:31.235Z,19.02
2023-01-18T23:18:58.365Z,19.65
2023-01-18T23:21:25.127Z,21.48
2023-01-18T23:23:51.963Z,21.98
2023-01-18T23:26:18.745Z,17.98
2023-01-18T23:28:45.410Z,17.42
2023-01-18T23:31:14.254Z,22.67
2023-01-18T23:33:42.409Z,18.15
2023-01-18T23:36:10.845Z,15.63
2023-01-18T23:38:56.104Z,18.88
2023-01-18T23:41:41.652Z,20.30
2023-01-18T23:44:27.204Z,20.40
2023-01-18T23:47:12.787Z,26.40
2023-01-18T23:49:58.322Z,28.07
2023-01-18T23:52:43.776Z,30.90
2023-01-18T23:55:10.671Z,21.33
2023-01-18T23:57:37.361Z,20.80
